Terminal Aerodrome Forecast
Issued by NWS

Home | Current Version | Previous Version | Text Only | Print | Product List | Glossary On
Versions: 1 2 3 4 5 6 7 8 9 10 11 12 13 14 15 16 17 18 19
729
FTUS44 KMAF 031727
TAFINK
TAF
KINK 031727Z 0318/0418 05011KT P6SM BKN012
      TEMPO 0318/0322 5SM BR BKN010
     FM040000 36006KT 4SM -RA BR OVC009
     FM041000 36008KT 3SM -RA BR OVC006=

USA.gov is the U.S. government's official web portal to all federal, state and local government web resources and services.